Bei Facebook empfehlenBei Twitter postenGoogle plusPinterest

Das Wetter im Erzgebirge am 27.06.2015

Wetter und Klima am 27.06.2015 Holzhau im Erzgebirge (630m ü.NN)
Letzte gemessene Temperatur und Uhrzeit der Messung23:45:00 Uhr14.10 °C
Temperatur (Maximum / Höchstwert) und Uhrzeit der Messung12:45:00 Uhr21.80 °C
Temperatur (Minimum / Tiefstwert) und Uhrzeit der Messung05:30:0011.50 °C
Errechneter Absolutwert der Temperaturschwankungen zwischen Tmin und Tmax des Tages10.30 K
Errechnete Tagesmitteltemperatur15.61042 °C
Gesamt - Niederschlag des Tages (in flüssiger Form)2.08 Liter / m²
Luftdruck (Maximum / Höchstwert) und Zeitpunkt der Messung00:00:00 Uhr1017.30 hPa
Luftdruck (Minimum / Tiefstwert) und Zeitpunkt der Messung19:15:00 Uhr1014.20 hPa
Errechneter Absolutwert der Luftdruckschwankungen des Tages3.10 hPa
Höchste gemessene Windgeschwindigkeit und Uhrzeit der Messung12:45:00 Uhr5.04 km/h
Errechnete Windhäufigkeit in Relation zu den Messwerten des Tages1.04167 %
Niedrigste Windkühle (Windchill) und Zeitpunkt der Messung05:30:00 Uhr11.50 °C
Taupunkt (Maximum / Höchstwert) und Uhrzeit der Messung16:15:00 Uhr15.20 °C
Taupunkt (Minimum / Tiefstwert) und Uhrzeit der Messung05:30:009.90 °C
Anzahl der automatisch eingelesenen Messwerte 96

Detaillierte Wetter- und Klima- Messwerte für den 27.06.2015 in Holzhau im Erzgebirge (630m ü.NN)
ZeitTemperaturLuftdruckRel. LuftfeuchteWindWindrichtungWindchillTaupunktNiederschlag l/m²
23:45:0014.10 °C1016.10 hPa89.00 %12.30 °C2.08
23:30:0014.30 °C1016.10 hPa89.00 %12.50 °C2.08
23:15:0014.50 °C1016.00 hPa89.00 %12.70 °C2.08
23:00:0014.80 °C1015.90 hPa89.00 %13.00 °C2.08
22:45:0014.90 °C1015.60 hPa89.00 %13.10 °C2.08
22:30:0014.90 °C1015.50 hPa89.00 %13.10 °C2.08
22:15:0014.90 °C1015.30 hPa88.00 %12.90 °C2.08
22:00:0014.90 °C1015.30 hPa88.00 %12.90 °C2.08
21:45:0014.90 °C1015.10 hPa87.00 %12.80 °C2.08
21:30:0015.10 °C1015.10 hPa87.00 %13.00 °C2.08
21:15:0015.10 °C1014.90 hPa86.00 %12.80 °C2.08
21:00:0015.20 °C1014.70 hPa85.00 %12.70 °C2.08
20:45:0015.50 °C1014.60 hPa85.00 %13.00 °C2.08
20:30:0015.60 °C1014.80 hPa85.00 %13.10 °C2.08
20:15:0015.90 °C1014.90 hPa84.00 %13.20 °C2.08
20:00:0016.10 °C1014.60 hPa84.00 %13.40 °C2.08
19:45:0016.20 °C1014.60 hPa83.00 %13.30 °C2.08
19:30:0016.50 °C1014.50 hPa82.00 %13.40 °C2.08
19:15:0016.90 °C1014.20 hPa82.00 %13.80 °C2.08
19:00:0016.70 °C1014.30 hPa82.00 %13.60 °C2.08
18:45:0016.60 °C1014.30 hPa83.00 %13.70 °C2.08
18:30:0016.40 °C1014.50 hPa83.00 %13.50 °C2.08
18:15:0016.30 °C1014.50 hPa83.00 %13.40 °C2.08
18:00:0016.50 °C1014.50 hPa84.00 %13.80 °C2.08
17:45:0016.90 °C1014.50 hPa84.00 %14.20 °C2.08
17:30:0016.90 °C1014.40 hPa85.00 %14.40 °C2.08
17:15:0016.30 °C1014.50 hPa86.00 %14.00 °C2.08
17:00:0016.20 °C1014.50 hPa84.00 %13.50 °C2.08
16:45:0017.10 °C1014.50 hPa83.00 %14.20 °C1.56
16:30:0017.30 °C1014.40 hPa82.00 %14.20 °C1.56
16:15:0017.80 °C1014.40 hPa85.00 %15.20 °C1.56
16:00:0016.30 °C1014.60 hPa87.00 %14.10 °C1.56
15:45:0015.60 °C1014.70 hPa85.00 %13.10 °C1.56
15:30:0016.10 °C1014.90 hPa84.00 %13.40 °C1.56
15:15:0016.70 °C1014.90 hPa84.00 %14.00 °C1.56
15:00:0016.40 °C1014.90 hPa85.00 %13.90 °C1.56
14:45:0015.30 °C1015.00 hPa84.00 %12.60 °C1.56
14:30:0015.00 °C1015.10 hPa83.00 %12.10 °C1.56
14:15:0014.90 °C1015.20 hPa81.00 %11.70 °C1.56
14:00:0015.10 °C1015.20 hPa80.00 %11.70 °C1.04
13:45:0015.10 °C1015.10 hPa78.00 %11.30 °C1.04
13:30:0016.60 °C1015.30 hPa71.00 %11.30 °C0.52
13:15:0019.30 °C1015.00 hPa63.00 %12.10 °C0.52
13:00:0020.80 °C1014.70 hPa60.00 %12.80 °C0.52
12:45:0021.80 °C1014.90 hPa61.00 %5.04 km/hWSW23.10 °C13.90 °C0.52
12:30:0021.80 °C1015.00 hPa62.00 %14.20 °C0.52
12:15:0021.40 °C1015.10 hPa67.00 %15.00 °C0.52
12:00:0020.20 °C1015.20 hPa73.00 %15.20 °C0.52
11:45:0018.40 °C1015.40 hPa77.00 %14.30 °C0.52
11:30:0017.30 °C1015.40 hPa78.00 %13.40 °C0.52
11:15:0017.10 °C1015.70 hPa77.00 %13.00 °C0.52
11:00:0017.40 °C1015.60 hPa75.00 %12.90 °C0.52
10:45:0018.10 °C1015.80 hPa72.00 %13.00 °C0.52
10:30:0018.50 °C1015.80 hPa68.00 %12.50 °C0.52
10:15:0019.40 °C1015.70 hPa66.00 %12.90 °C0.52
10:00:0019.90 °C1015.60 hPa65.00 %13.10 °C0.52
09:45:0020.60 °C1015.40 hPa68.00 %14.50 °C0.52
09:30:0020.40 °C1015.60 hPa71.00 %15.00 °C0.52
09:15:0019.90 °C1015.40 hPa73.00 %14.90 °C0.52
09:00:0019.10 °C1015.50 hPa77.00 %15.00 °C0.52
08:45:0018.80 °C1015.30 hPa79.00 %15.10 °C0.52
08:30:0018.50 °C1015.50 hPa80.00 %15.00 °C0.52
08:15:0018.10 °C1015.40 hPa83.00 %15.20 °C0.52
08:00:0017.30 °C1015.40 hPa87.00 %15.10 °C0.52
07:45:0016.20 °C1015.40 hPa88.00 %14.20 °C0.52
07:30:0015.40 °C1015.40 hPa89.00 %13.60 °C0.52
07:15:0014.90 °C1015.40 hPa90.00 %13.30 °C0.52
07:00:0014.40 °C1015.30 hPa90.00 %12.80 °C0.52
06:45:0013.90 °C1015.40 hPa91.00 %12.50 °C0.52
06:30:0012.90 °C1015.30 hPa91.00 %11.50 °C0.52
06:15:0012.40 °C1015.40 hPa91.00 %11.00 °C0.52
06:00:0011.90 °C1015.40 hPa91.00 %10.50 °C0.52
05:45:0011.60 °C1015.40 hPa91.00 %10.20 °C0.52
05:30:0011.50 °C1015.30 hPa90.00 %9.90 °C0.52
05:15:0011.50 °C1015.40 hPa90.00 %9.90 °C0.52
05:00:0011.70 °C1015.30 hPa90.00 %10.10 °C0.52
04:45:0011.80 °C1015.30 hPa90.00 %10.20 °C0.52
04:30:0011.80 °C1015.50 hPa90.00 %10.20 °C0.52
04:15:0011.80 °C1015.40 hPa90.00 %10.20 °C0.52
04:00:0011.90 °C1015.40 hPa90.00 %10.30 °C0.52
03:45:0011.90 °C1015.60 hPa90.00 %10.30 °C0.52
03:30:0012.10 °C1015.60 hPa90.00 %10.50 °C0.52
03:15:0012.20 °C1015.60 hPa90.00 %10.60 °C0.52
03:00:0012.30 °C1015.70 hPa90.00 %10.70 °C0.52
02:45:0012.30 °C1015.90 hPa90.00 %10.70 °C0.52
02:30:0012.40 °C1016.00 hPa90.00 %10.80 °C0.52
02:15:0012.40 °C1016.10 hPa89.00 %10.60 °C0.52
02:00:0012.40 °C1016.10 hPa89.00 %10.60 °C 
01:45:0012.50 °C1016.20 hPa89.00 %10.70 °C 
01:30:0012.60 °C1016.40 hPa87.00 %10.50 °C 
01:15:0013.20 °C1017.10 hPa88.00 %11.30 °C 
01:00:0013.40 °C1017.00 hPa88.00 %11.50 °C 
00:45:0013.50 °C1016.60 hPa87.00 %11.40 °C 
00:30:0013.60 °C1016.80 hPa87.00 %11.50 °C 
00:15:0013.80 °C1017.20 hPa87.00 %11.70 °C 
00:00:0013.90 °C1017.30 hPa86.00 %11.60 °C 

Permanenter Link zu dieser Seite: Wetter im Erzgebirge am 27.06.2015
Performance-Info: Die Erstellung der Seite / Statistik(en) / Tabelle(n) erforderte 5 Datenbankserver-Abfrage(n) und dauerte 123 Millisekunden. (Dieser Messwert ist von der Gesamt-Auslastung des Servers abhängig.)
Erzgebirge - Wetter | Erzgebirge - Wetter (Mobilgeräte) | Komplette Klimadatenbank